< Typhoon 199517 1995 Season Typhoon 199519 >
Typhoon 199518 (WARD)
General InformationTrack Information on Google MapsDetailed Wind InformationList of All Images || Disaster Info.ResourceGoogle EarthGE AnimationAtom FeedGeoJSON
Detalied Best Track (Time Zone = UTC)
Year Month Day Hour Lat. Long. Pressure (hPa) Wind (kt) Class Image Chart
1995 10 16 06 12.3 153.5 1006 0 2 Image Chart
1995 10 16 12 13.0 152.0 1006 0 2 Image Chart
1995 10 16 18 13.4 150.4 1004 0 2 Image Chart
1995 10 17 00 13.8 148.5 1002 35 3 Image Chart
1995 10 17 06 14.1 146.8 998 40 3 Image Chart
1995 10 17 12 14.4 145.2 994 40 3 Image Chart
1995 10 17 18 14.8 143.6 990 45 3 Image Chart
1995 10 18 00 15.4 142.1 980 55 4 Image Chart
1995 10 18 06 16.0 140.7 970 65 5 Image Chart
1995 10 18 12 16.7 139.4 960 70 5 Image Chart
1995 10 18 18 17.6 137.9 955 75 5 Image Chart
1995 10 19 00 18.6 136.5 950 80 5 Image Chart
1995 10 19 06 19.7 135.5 945 85 5 Image Chart
1995 10 19 12 20.9 134.8 945 85 5 Image Chart
1995 10 19 18 21.9 134.4 940 85 5 Image Chart
1995 10 20 00 22.8 134.2 940 85 5 Image Chart
1995 10 20 06 23.7 134.3 940 85 5 Image Chart
1995 10 20 12 24.5 134.6 945 85 5 Image Chart
1995 10 20 18 25.0 135.0 950 80 5 Image Chart
1995 10 21 00 25.8 135.6 960 75 5 Image Chart
1995 10 21 06 26.5 136.8 965 70 5 Image Chart
1995 10 21 12 27.3 138.1 970 65 5 Image Chart
1995 10 21 18 28.5 139.3 975 60 4 Image Chart
1995 10 22 00 29.6 140.5 980 55 4 Image Chart
1995 10 22 06 30.9 143.7 985 50 4 Image Chart
1995 10 22 12 31.7 147.4 992 0 6 Image Chart
1995 10 22 18 32.5 151.5 996 0 6 Image Chart
1995 10 23 00 33.0 156.0 992 0 6 Image Chart
1995 10 23 06 34.0 161.0 992 0 6 Image Chart
1995 10 23 12 35.5 166.0 990 0 6 Image Chart
1995 10 23 18 38.5 172.5 990 0 6 Image Chart
1995 10 24 00 40.0 176.0 988 0 6 Image Chart
1995 10 24 06 41.5 181.5 982 0 6 Image Chart
Japan Meteorological Agency Best Track Data | Correction Date : 1996-01-19
< Typhoon 199517 1995 Season Typhoon 199519 >

Help